Time,TemperatureF,DewpointF,PressureIn,WindDirection,WindDirectionDegrees,WindSpeedMPH,WindSpeedGustMPH,Humidity,HourlyPrecipIn,Conditions,Clouds,dailyrainin,SoftwareType,DateUTC
2013-02-22 00:04:00,7.9,-3.1,29.72,WSW,248,3.0,4.0,60,0.00,,,0.00,meteohub,2013-02-22 07:04:00,
2013-02-22 00:09:00,7.7,-3.3,29.72,SE,135,1.0,4.0,60,0.00,,,0.00,meteohub,2013-02-22 07:09:00,
2013-02-22 00:14:00,7.5,-3.5,29.72,West,270,1.0,4.0,60,0.00,,,0.00,meteohub,2013-02-22 07:14:00,
2013-02-22 00:19:00,7.3,-3.6,29.72,WNW,293,2.0,4.0,60,0.00,,,0.00,meteohub,2013-02-22 07:19:00,
2013-02-22 00:24:00,7.3,-3.6,29.72,South,180,1.0,4.0,60,0.00,,,0.00,meteohub,2013-02-22 07:24:00,
2013-02-22 00:29:00,7.2,-3.8,29.72,West,270,0.0,2.0,60,0.00,,,0.00,meteohub,2013-02-22 07:29:00,
2013-02-22 00:34:00,7.2,-3.8,29.72,West,270,0.0,2.0,60,0.00,,,0.00,meteohub,2013-02-22 07:34:00,
2013-02-22 00:40:00,7.2,-3.8,29.72,West,270,2.0,2.0,60,0.00,,,0.00,meteohub,2013-02-22 07:40:00,
2013-02-22 00:45:00,7.2,-3.8,29.72,West,270,0.0,2.0,60,0.00,,,0.00,meteohub,2013-02-22 07:45:00,
2013-02-22 00:50:00,7.2,-3.8,29.72,East,90,1.0,2.0,60,0.00,,,0.00,meteohub,2013-02-22 07:50:00,
2013-02-22 00:55:00,7.0,-4.0,29.72,North,0,1.0,2.0,60,0.00,,,0.00,meteohub,2013-02-22 07:55:00,
2013-02-22 01:00:00,6.8,-4.5,29.72,SW,225,1.0,3.0,59,0.00,,,0.00,meteohub,2013-02-22 08:00:00,
2013-02-22 01:05:00,6.8,-4.5,29.72,SW,225,1.0,3.0,59,0.00,,,0.00,meteohub,2013-02-22 08:05:00,
2013-02-22 01:10:00,6.4,-4.5,29.72,SE,135,1.0,3.0,60,0.00,,,0.00,meteohub,2013-02-22 08:10:00,
2013-02-22 01:15:00,6.4,-4.5,29.72,NW,315,4.0,4.0,60,0.00,,,0.00,meteohub,2013-02-22 08:15:00,
2013-02-22 01:20:00,6.4,-4.5,29.72,South,180,0.0,2.0,60,0.00,,,0.00,meteohub,2013-02-22 08:20:00,
2013-02-22 01:25:00,6.3,-4.7,29.72,South,180,0.0,4.0,60,0.00,,,0.00,meteohub,2013-02-22 08:25:00,
2013-02-22 01:30:00,6.1,-4.9,29.73,SW,225,0.0,4.0,60,0.00,,,0.00,meteohub,2013-02-22 08:30:00,
2013-02-22 01:35:00,6.1,-4.9,29.72,South,180,0.0,0.0,60,0.00,,,0.00,meteohub,2013-02-22 08:35:00,
2013-02-22 01:40:00,5.9,-5.1,29.72,SE,135,1.0,0.0,60,0.00,,,0.00,meteohub,2013-02-22 08:40:00,
2013-02-22 01:45:00,5.7,-5.1,29.72,SE,135,0.0,1.0,60,0.00,,,0.00,meteohub,2013-02-22 08:45:00,
2013-02-22 01:50:00,5.5,-5.3,29.72,South,180,0.0,1.0,60,0.00,,,0.00,meteohub,2013-02-22 08:50:00,
2013-02-22 01:55:00,5.4,-5.4,29.72,NW,315,2.0,2.0,60,0.00,,,0.00,meteohub,2013-02-22 08:55:00,
2013-02-22 02:00:00,5.4,-5.4,29.72,SW,225,1.0,2.0,60,0.00,,,0.00,meteohub,2013-02-22 09:00:00,
2013-02-22 02:05:00,5.4,-5.4,29.72,West,270,1.0,2.0,60,0.00,,,0.00,meteohub,2013-02-22 09:05:00,
2013-02-22 02:11:00,5.4,-5.4,29.72,West,270,1.0,2.0,60,0.00,,,0.00,meteohub,2013-02-22 09:11:00,
2013-02-22 02:16:00,5.4,-5.4,29.72,SE,135,1.0,2.0,60,0.00,,,0.00,meteohub,2013-02-22 09:16:00,
2013-02-22 02:21:00,5.4,-5.4,29.71,SE,135,0.0,2.0,60,0.00,,,0.00,meteohub,2013-02-22 09:21:00,
2013-02-22 02:26:00,5.4,-5.4,29.71,SW,225,0.0,1.0,60,0.00,,,0.00,meteohub,2013-02-22 09:26:00,
2013-02-22 02:31:00,5.4,-5.4,29.71,SE,135,0.0,1.0,60,0.00,,,0.00,meteohub,2013-02-22 09:31:00,
2013-02-22 02:36:00,5.4,-5.4,29.71,SE,135,0.0,1.0,60,0.00,,,0.00,meteohub,2013-02-22 09:36:00,
2013-02-22 02:41:00,5.4,-5.4,29.71,SE,135,0.0,1.0,60,0.00,,,0.00,meteohub,2013-02-22 09:41:00,
2013-02-22 02:46:00,5.4,-5.4,29.71,SE,135,0.0,0.0,60,0.00,,,0.00,meteohub,2013-02-22 09:46:00,
2013-02-22 02:51:00,5.4,-5.4,29.71,SE,135,0.0,0.0,60,0.00,,,0.00,meteohub,2013-02-22 09:51:00,
2013-02-22 02:56:00,5.4,-5.4,29.71,ESE,113,0.0,0.0,60,0.00,,,0.00,meteohub,2013-02-22 09:56:00,
2013-02-22 03:01:00,5.4,-5.4,29.71,ESE,113,0.0,0.0,60,0.00,,,0.00,meteohub,2013-02-22 10:01:00,
2013-02-22 03:06:00,5.4,-5.4,29.71,ESE,113,0.0,0.0,60,0.00,,,0.00,meteohub,2013-02-22 10:06:00,
2013-02-22 03:11:00,5.4,-5.4,29.71,NW,315,1.0,3.0,60,0.00,,,0.00,meteohub,2013-02-22 10:11:00,
2013-02-22 03:16:00,5.4,-5.4,29.71,NW,315,0.0,3.0,60,0.00,,,0.00,meteohub,2013-02-22 10:16:00,
2013-02-22 03:21:00,5.5,-5.3,29.71,South,180,0.0,3.0,60,0.00,,,0.00,meteohub,2013-02-22 10:21:00,
2013-02-22 03:27:00,5.5,-5.3,29.71,SW,225,0.0,1.0,60,0.00,,,0.00,meteohub,2013-02-22 10:27:00,
2013-02-22 03:32:00,5.5,-5.3,29.71,West,270,0.0,2.0,60,0.00,,,0.00,meteohub,2013-02-22 10:32:00,
2013-02-22 03:37:00,5.7,-5.1,29.72,West,270,0.0,2.0,60,0.00,,,0.00,meteohub,2013-02-22 10:37:00,
2013-02-22 03:42:00,5.9,-5.1,29.71,South,180,0.0,2.0,60,0.00,,,0.00,meteohub,2013-02-22 10:42:00,
2013-02-22 03:47:00,5.9,-5.1,29.71,SW,225,0.0,2.0,60,0.00,,,0.00,meteohub,2013-02-22 10:47:00,
2013-02-22 03:52:00,5.9,-5.1,29.71,West,270,2.0,2.0,60,0.00,,,0.00,meteohub,2013-02-22 10:52:00,
2013-02-22 03:57:00,5.9,-5.1,29.71,West,270,1.0,2.0,60,0.00,,,0.00,meteohub,2013-02-22 10:57:00,
2013-02-22 04:02:00,5.9,-5.1,29.71,West,270,1.0,2.0,60,0.00,,,0.00,meteohub,2013-02-22 11:02:00,
2013-02-22 04:07:00,6.1,-4.9,29.72,WNW,293,0.0,2.0,60,0.00,,,0.00,meteohub,2013-02-22 11:07:00,
2013-02-22 04:12:00,6.1,-4.9,29.71,WNW,293,0.0,1.0,60,0.00,,,0.00,meteohub,2013-02-22 11:12:00,
2013-02-22 04:17:00,6.1,-4.9,29.72,WNW,293,0.0,1.0,60,0.00,,,0.00,meteohub,2013-02-22 11:17:00,
2013-02-22 04:22:00,6.1,-4.9,29.72,WNW,293,0.0,1.0,60,0.00,,,0.00,meteohub,2013-02-22 11:22:00,
2013-02-22 04:27:00,6.1,-4.9,29.72,WNW,293,0.0,1.0,60,0.00,,,0.00,meteohub,2013-02-22 11:27:00,
2013-02-22 04:32:00,5.9,-5.1,29.71,NW,315,0.0,0.0,60,0.00,,,0.00,meteohub,2013-02-22 11:32:00,
2013-02-22 04:37:00,6.1,-4.9,29.71,WSW,248,0.0,0.0,60,0.00,,,0.00,meteohub,2013-02-22 11:37:00,
2013-02-22 04:42:00,5.9,-5.1,29.71,West,270,0.0,0.0,60,0.00,,,0.00,meteohub,2013-02-22 11:42:00,
2013-02-22 04:47:00,5.9,-5.1,29.71,West,270,0.0,0.0,60,0.00,,,0.00,meteohub,2013-02-22 11:47:00,
2013-02-22 04:52:00,5.9,-5.1,29.72,West,270,0.0,0.0,60,0.00,,,0.00,meteohub,2013-02-22 11:52:00,
2013-02-22 04:57:00,5.7,-5.1,29.72,West,270,0.0,0.0,60,0.00,,,0.00,meteohub,2013-02-22 11:57:00,
2013-02-22 05:02:00,5.7,-5.1,29.72,NW,315,0.0,0.0,60,0.00,,,0.00,meteohub,2013-02-22 12:02:00,
2013-02-22 05:07:00,5.5,-5.6,29.72,West,270,0.0,0.0,59,0.00,,,0.00,meteohub,2013-02-22 12:07:00,
2013-02-22 05:12:00,5.4,-5.8,29.72,West,270,0.0,0.0,59,0.00,,,0.00,meteohub,2013-02-22 12:12:00,
2013-02-22 05:17:00,5.2,-6.0,29.71,South,180,0.0,0.0,59,0.00,,,0.00,meteohub,2013-02-22 12:17:00,
2013-02-22 05:22:00,5.2,-6.0,29.72,South,180,0.0,0.0,59,0.00,,,0.00,meteohub,2013-02-22 12:22:00,
2013-02-22 05:27:00,5.0,-6.5,29.72,South,180,0.0,0.0,58,0.00,,,0.00,meteohub,2013-02-22 12:27:00,
2013-02-22 05:32:00,4.8,-6.3,29.72,South,180,0.0,0.0,59,0.00,,,0.00,meteohub,2013-02-22 12:32:00,
2013-02-22 05:37:00,4.5,-6.7,29.72,South,180,0.0,0.0,59,0.00,,,0.00,meteohub,2013-02-22 12:37:00,
2013-02-22 05:42:00,4.3,-7.2,29.72,South,180,0.0,0.0,58,0.00,,,0.00,meteohub,2013-02-22 12:42:00,
2013-02-22 05:47:00,3.9,-7.6,29.72,South,180,0.0,0.0,58,0.00,,,0.00,meteohub,2013-02-22 12:47:00,
2013-02-22 05:52:00,3.6,-8.3,29.72,South,180,0.0,0.0,57,0.00,,,0.00,meteohub,2013-02-22 12:52:00,
2013-02-22 05:58:00,3.4,-8.5,29.73,South,180,0.0,0.0,57,0.00,,,0.00,meteohub,2013-02-22 12:58:00,
2013-02-22 06:03:00,3.2,-8.7,29.72,South,180,0.0,0.0,57,0.00,,,0.00,meteohub,2013-02-22 13:03:00,
2013-02-22 06:08:00,3.0,-8.5,29.72,South,180,0.0,0.0,58,0.00,,,0.00,meteohub,2013-02-22 13:08:00,
2013-02-22 06:13:00,2.8,-8.5,29.72,South,180,0.0,0.0,58,0.00,,,0.00,meteohub,2013-02-22 13:13:00,
2013-02-22 06:18:00,2.8,-8.5,29.72,South,180,0.0,0.0,58,0.00,,,0.00,meteohub,2013-02-22 13:18:00,
2013-02-22 06:23:00,2.7,-8.7,29.73,South,180,0.0,0.0,58,0.00,,,0.00,meteohub,2013-02-22 13:23:00,
2013-02-22 06:28:00,2.7,-8.7,29.73,South,180,0.0,0.0,58,0.00,,,0.00,meteohub,2013-02-22 13:28:00,
2013-02-22 06:33:00,2.5,-8.9,29.73,South,180,0.0,0.0,58,0.00,,,0.00,meteohub,2013-02-22 13:33:00,
2013-02-22 06:38:00,2.1,-9.6,29.73,South,180,0.0,0.0,57,0.00,,,0.00,meteohub,2013-02-22 13:38:00,
2013-02-22 06:43:00,1.8,-9.9,29.73,South,180,0.0,0.0,57,0.00,,,0.00,meteohub,2013-02-22 13:43:00,
2013-02-22 06:48:00,1.6,-10.1,29.73,South,180,0.0,0.0,57,0.00,,,0.00,meteohub,2013-02-22 13:48:00,
2013-02-22 06:53:00,1.4,-10.7,29.73,South,180,0.0,0.0,56,0.00,,,0.00,meteohub,2013-02-22 13:53:00,
2013-02-22 06:58:00,1.0,-12.5,29.73,South,180,0.0,0.0,52,0.00,,,0.00,meteohub,2013-02-22 13:58:00,
2013-02-22 07:03:00,0.9,-12.6,29.73,South,180,0.0,0.0,52,0.00,,,0.00,meteohub,2013-02-22 14:03:00,
2013-02-22 07:08:00,0.3,-13.5,29.73,South,180,0.0,0.0,51,0.00,,,0.00,meteohub,2013-02-22 14:08:00,
2013-02-22 07:13:00,0.1,-13.7,29.74,South,180,0.0,0.0,51,0.00,,,0.00,meteohub,2013-02-22 14:13:00,
2013-02-22 07:19:00,0.0,-13.9,29.74,South,180,0.0,0.0,51,0.00,,,0.00,meteohub,2013-02-22 14:19:00,
2013-02-22 07:24:00,0.0,-13.9,29.73,SW,225,0.0,0.0,51,0.00,,,0.00,meteohub,2013-02-22 14:24:00,
2013-02-22 07:29:00,0.3,-13.5,29.73,SW,225,0.0,0.0,51,0.00,,,0.00,meteohub,2013-02-22 14:29:00,
2013-02-22 07:34:00,0.5,-13.4,29.74,SE,135,0.0,0.0,51,0.00,,,0.00,meteohub,2013-02-22 14:34:00,
2013-02-22 07:39:00,0.7,-12.8,29.73,SE,135,0.0,0.0,52,0.00,,,0.00,meteohub,2013-02-22 14:39:00,
2013-02-22 07:44:00,1.0,-12.5,29.74,SE,135,0.0,0.0,52,0.00,,,0.00,meteohub,2013-02-22 14:44:00,
2013-02-22 07:49:00,1.6,-10.5,29.74,SE,135,0.0,0.0,56,0.00,,,0.00,meteohub,2013-02-22 14:49:00,
2013-02-22 07:54:00,2.1,-9.9,29.74,SE,135,0.0,0.0,56,0.00,,,0.00,meteohub,2013-02-22 14:54:00,
2013-02-22 07:59:00,2.8,-8.9,29.73,SE,135,0.0,0.0,57,0.00,,,0.00,meteohub,2013-02-22 14:59:00,
2013-02-22 08:04:00,3.6,-8.7,29.73,SE,135,0.0,0.0,56,0.00,,,0.00,meteohub,2013-02-22 15:04:00,
2013-02-22 08:10:00,4.1,-8.1,29.74,SE,135,0.0,0.0,56,0.00,,,0.00,meteohub,2013-02-22 15:10:00,
2013-02-22 08:15:00,4.5,-7.8,29.74,SE,135,0.0,0.0,56,0.00,,,0.00,meteohub,2013-02-22 15:15:00,
2013-02-22 08:20:00,4.6,-7.6,29.74,SE,135,0.0,0.0,56,0.00,,,0.00,meteohub,2013-02-22 15:20:00,
2013-02-22 08:25:00,4.8,-7.4,29.74,SE,135,0.0,0.0,56,0.00,,,0.00,meteohub,2013-02-22 15:25:00,
2013-02-22 08:30:00,5.0,-7.6,29.74,SE,135,0.0,0.0,55,0.00,,,0.00,meteohub,2013-02-22 15:30:00,
2013-02-22 08:35:00,5.0,-8.0,29.74,SE,135,0.0,0.0,54,0.00,,,0.00,meteohub,2013-02-22 15:35:00,
2013-02-22 08:40:00,5.0,-8.0,29.74,SE,135,0.0,0.0,54,0.00,,,0.00,meteohub,2013-02-22 15:40:00,
2013-02-22 08:45:00,4.8,-7.8,29.74,SE,135,0.0,0.0,55,0.00,,,0.00,meteohub,2013-02-22 15:45:00,
2013-02-22 08:50:00,5.0,-8.0,29.75,SE,135,0.0,0.0,54,0.00,,,0.00,meteohub,2013-02-22 15:50:00,
2013-02-22 08:55:00,5.2,-7.8,29.75,SE,135,0.0,0.0,54,0.00,,,0.00,meteohub,2013-02-22 15:55:00,
2013-02-22 09:00:00,5.5,-7.1,29.75,SE,135,0.0,0.0,55,0.00,,,0.00,meteohub,2013-02-22 16:00:00,
2013-02-22 09:05:00,5.5,-7.1,29.74,SE,135,0.0,0.0,55,0.00,,,0.00,meteohub,2013-02-22 16:05:00,
2013-02-22 09:10:00,6.3,-6.5,29.74,SE,135,0.0,0.0,55,0.00,,,0.00,meteohub,2013-02-22 16:10:00,
2013-02-22 09:15:00,6.8,-6.0,29.74,South,180,0.0,0.0,55,0.00,,,0.00,meteohub,2013-02-22 16:15:00,
2013-02-22 09:20:00,8.4,-4.4,29.74,West,270,0.0,0.0,55,0.00,,,0.00,meteohub,2013-02-22 16:20:00,
2013-02-22 09:25:00,9.7,-3.6,29.74,West,270,2.0,0.0,54,0.00,,,0.00,meteohub,2013-02-22 16:25:00,
2013-02-22 09:30:00,10.6,-1.7,29.74,NW,315,0.0,2.0,57,0.00,,,0.00,meteohub,2013-02-22 16:30:00,
2013-02-22 09:35:00,10.9,-1.7,29.74,West,270,1.0,2.0,56,0.00,,,0.00,meteohub,2013-02-22 16:35:00,
2013-02-22 09:41:00,11.1,-1.8,29.74,West,270,0.0,2.0,55,0.00,,,0.00,meteohub,2013-02-22 16:41:00,
2013-02-22 09:46:00,11.5,-1.5,29.74,West,270,0.0,2.0,55,0.00,,,0.00,meteohub,2013-02-22 16:46:00,
2013-02-22 09:51:00,12.6,-0.9,29.74,NW,315,3.0,3.0,54,0.00,,,0.00,meteohub,2013-02-22 16:51:00,
2013-02-22 09:56:00,13.3,-0.6,29.74,SW,225,1.0,3.0,53,0.00,,,0.00,meteohub,2013-02-22 16:56:00,
2013-02-22 10:01:00,13.3,-1.1,29.74,NW,315,2.0,3.0,52,0.00,,,0.00,meteohub,2013-02-22 17:01:00,
2013-02-22 10:06:00,13.6,-0.8,29.73,West,270,1.0,3.0,52,0.00,,,0.00,meteohub,2013-02-22 17:06:00,
2013-02-22 10:11:00,14.4,-0.4,29.74,NW,315,3.0,3.0,51,0.00,,,0.00,meteohub,2013-02-22 17:11:00,
2013-02-22 10:16:00,14.9,0.0,29.73,North,0,1.0,3.0,51,0.00,,,0.00,meteohub,2013-02-22 17:16:00,
2013-02-22 10:21:00,15.4,0.5,29.73,West,270,2.0,3.0,51,0.00,,,0.00,meteohub,2013-02-22 17:21:00,
2013-02-22 10:26:00,16.0,0.7,29.73,NNW,338,2.0,3.0,50,0.00,,,0.00,meteohub,2013-02-22 17:26:00,
2013-02-22 10:31:00,16.5,0.7,29.73,NW,315,0.0,2.0,49,0.00,,,0.00,meteohub,2013-02-22 17:31:00,
2013-02-22 10:36:00,17.4,1.6,29.73,NW,315,2.0,2.0,49,0.00,,,0.00,meteohub,2013-02-22 17:36:00,
2013-02-22 10:41:00,18.3,1.9,29.73,West,270,2.0,3.0,48,0.00,,,0.00,meteohub,2013-02-22 17:41:00,
2013-02-22 10:46:00,19.2,2.7,29.73,NW,315,2.0,4.0,48,0.00,,,0.00,meteohub,2013-02-22 17:46:00,
2013-02-22 10:51:00,20.3,5.5,29.73,NW,315,0.0,4.0,52,0.00,,,0.00,meteohub,2013-02-22 17:51:00,
2013-02-22 10:56:00,21.7,5.9,29.73,West,270,2.0,4.0,50,0.00,,,0.00,meteohub,2013-02-22 17:56:00,
2013-02-22 11:01:00,21.9,5.7,29.73,SE,135,2.0,4.0,49,0.00,,,0.00,meteohub,2013-02-22 18:01:00,
2013-02-22 11:06:00,21.9,5.7,29.73,SE,135,2.0,4.0,49,0.00,,,0.00,meteohub,2013-02-22 18:06:00,
2013-02-22 11:12:00,20.8,3.4,29.73,West,270,3.0,4.0,46,0.00,,,0.00,meteohub,2013-02-22 18:12:00,
2013-02-22 11:17:00,20.7,3.2,29.73,East,90,1.0,4.0,46,0.00,,,0.00,meteohub,2013-02-22 18:17:00,
2013-02-22 11:22:00,20.8,3.4,29.73,SW,225,4.0,4.0,46,0.00,,,0.00,meteohub,2013-02-22 18:22:00,
2013-02-22 11:27:00,20.8,3.4,29.73,West,270,3.0,4.0,46,0.00,,,0.00,meteohub,2013-02-22 18:27:00,
2013-02-22 11:32:00,20.1,2.1,29.73,WNW,293,2.0,4.0,45,0.00,,,0.00,meteohub,2013-02-22 18:32:00,
2013-02-22 11:37:00,19.8,1.4,29.73,SW,225,1.0,5.0,44,0.00,,,0.00,meteohub,2013-02-22 18:37:00,
2013-02-22 11:42:00,19.4,1.0,29.73,West,270,2.0,5.0,44,0.00,,,0.00,meteohub,2013-02-22 18:42:00,
2013-02-22 11:47:00,19.8,1.8,29.73,West,270,2.0,3.0,45,0.00,,,0.00,meteohub,2013-02-22 18:47:00,
2013-02-22 11:52:00,20.3,1.9,29.73,West,270,2.0,3.0,44,0.00,,,0.00,meteohub,2013-02-22 18:52:00,
2013-02-22 11:57:00,20.7,2.7,29.73,NW,315,4.0,4.0,45,0.00,,,0.00,meteohub,2013-02-22 18:57:00,
2013-02-22 12:02:00,20.1,1.8,29.73,South,180,1.0,4.0,44,0.00,,,0.00,meteohub,2013-02-22 19:02:00,
2013-02-22 12:07:00,20.1,2.1,29.73,West,270,2.0,4.0,45,0.00,,,0.00,meteohub,2013-02-22 19:07:00,
2013-02-22 12:12:00,20.3,3.2,29.73,NW,315,4.0,6.0,47,0.00,,,0.00,meteohub,2013-02-22 19:12:00,
2013-02-22 12:17:00,21.0,4.5,29.73,WNW,293,4.0,6.0,48,0.00,,,0.00,meteohub,2013-02-22 19:17:00,
2013-02-22 12:22:00,21.2,4.6,29.73,NW,315,4.0,8.0,48,0.00,,,0.00,meteohub,2013-02-22 19:22:00,
2013-02-22 12:27:00,20.8,4.6,29.73,NW,315,5.0,8.0,49,0.00,,,0.00,meteohub,2013-02-22 19:27:00,
2013-02-22 12:32:00,21.7,5.5,29.73,West,270,6.0,8.0,49,0.00,,,0.00,meteohub,2013-02-22 19:32:00,
2013-02-22 12:37:00,22.1,5.9,29.73,NW,315,4.0,7.0,49,0.00,,,0.00,meteohub,2013-02-22 19:37:00,
2013-02-22 12:42:00,22.6,5.9,29.72,SW,225,2.0,7.0,48,0.00,,,0.00,meteohub,2013-02-22 19:42:00,
2013-02-22 12:47:00,23.0,5.4,29.73,NW,315,2.0,6.0,46,0.00,,,0.00,meteohub,2013-02-22 19:47:00,
2013-02-22 12:52:00,24.1,5.7,29.72,SW,225,4.0,5.0,45,0.00,,,0.00,meteohub,2013-02-22 19:52:00,
2013-02-22 12:57:00,24.4,6.1,29.72,West,270,5.0,7.0,45,0.00,,,0.00,meteohub,2013-02-22 19:57:00,
2013-02-22 13:02:00,24.6,6.3,29.72,NW,315,8.0,9.0,45,0.00,,,0.00,meteohub,2013-02-22 20:02:00,
2013-02-22 13:07:00,24.6,6.3,29.72,NW,315,8.0,9.0,45,0.00,,,0.00,meteohub,2013-02-22 20:07:00,
2013-02-22 13:12:00,24.3,5.9,29.72,West,270,4.0,9.0,45,0.00,,,0.00,meteohub,2013-02-22 20:12:00,
2013-02-22 13:17:00,23.9,5.2,29.72,West,270,6.0,9.0,44,0.00,,,0.00,meteohub,2013-02-22 20:17:00,
2013-02-22 13:22:00,23.7,5.5,29.72,NW,315,4.0,9.0,45,0.00,,,0.00,meteohub,2013-02-22 20:22:00,
2013-02-22 13:27:00,23.5,5.4,29.72,WSW,248,3.0,8.0,45,0.00,,,0.00,meteohub,2013-02-22 20:27:00,
2013-02-22 13:32:00,23.2,4.5,29.72,SW,225,2.0,8.0,44,0.00,,,0.00,meteohub,2013-02-22 20:32:00,
2013-02-22 13:37:00,22.3,4.6,29.72,West,270,8.0,8.0,46,0.00,,,0.00,meteohub,2013-02-22 20:37:00,
2013-02-22 13:42:00,21.6,3.9,29.72,West,270,4.0,8.0,46,0.00,,,0.00,meteohub,2013-02-22 20:42:00,
2013-02-22 13:47:00,20.5,3.4,29.72,West,270,4.0,10.0,47,0.00,,,0.00,meteohub,2013-02-22 20:47:00,
2013-02-22 13:52:00,19.6,2.7,29.72,West,270,4.0,10.0,47,0.00,,,0.00,meteohub,2013-02-22 20:52:00,
2013-02-22 13:57:00,19.2,0.9,29.72,NW,315,8.0,10.0,44,0.00,,,0.00,meteohub,2013-02-22 20:57:00,
2013-02-22 14:02:00,19.2,1.4,29.72,West,270,5.0,11.0,45,0.00,,,0.00,meteohub,2013-02-22 21:02:00,
2013-02-22 14:07:00,19.0,1.6,29.72,NW,315,2.0,11.0,46,0.00,,,0.00,meteohub,2013-02-22 21:07:00,
2013-02-22 14:12:00,18.7,1.4,29.72,SE,135,4.0,11.0,46,0.00,,,0.00,meteohub,2013-02-22 21:12:00,
2013-02-22 14:17:00,18.1,1.2,29.72,NW,315,6.0,10.0,47,0.00,,,0.00,meteohub,2013-02-22 21:17:00,
2013-02-22 14:22:00,17.4,1.0,29.73,South,180,3.0,11.0,48,0.00,,,0.00,meteohub,2013-02-22 21:22:00,
2013-02-22 14:27:00,16.7,0.9,29.73,NW,315,4.0,11.0,49,0.00,,,0.00,meteohub,2013-02-22 21:27:00,
2013-02-22 14:32:00,16.2,0.3,29.73,North,0,6.0,11.0,49,0.00,,,0.00,meteohub,2013-02-22 21:32:00,
2013-02-22 14:37:00,15.8,0.0,29.72,South,180,4.0,8.0,49,0.00,,,0.00,meteohub,2013-02-22 21:37:00,
2013-02-22 14:42:00,15.8,0.5,29.73,SW,225,2.0,9.0,50,0.00,,,0.00,meteohub,2013-02-22 21:42:00,
2013-02-22 14:47:00,15.8,0.5,29.72,NNW,338,2.0,9.0,50,0.00,,,0.00,meteohub,2013-02-22 21:47:00,
2013-02-22 14:52:00,16.0,0.7,29.73,NW,315,4.0,9.0,50,0.00,,,0.00,meteohub,2013-02-22 21:52:00,
2013-02-22 14:57:00,16.0,1.0,29.73,NW,315,4.0,7.0,51,0.00,,,0.00,meteohub,2013-02-22 21:57:00,
2013-02-22 15:02:00,16.0,1.0,29.73,West,270,5.0,8.0,51,0.00,,,0.00,meteohub,2013-02-22 22:02:00,
2013-02-22 15:07:00,16.0,1.0,29.73,West,270,5.0,8.0,51,0.00,,,0.00,meteohub,2013-02-22 22:07:00,
2013-02-22 15:12:00,16.0,1.0,29.73,West,270,4.0,8.0,51,0.00,,,0.00,meteohub,2013-02-22 22:12:00,
2013-02-22 15:17:00,15.6,1.0,29.73,NW,315,8.0,8.0,52,0.00,,,0.00,meteohub,2013-02-22 22:17:00,
2013-02-22 15:22:00,15.4,1.0,29.73,West,270,5.0,8.0,52,0.00,,,0.00,meteohub,2013-02-22 22:22:00,
2013-02-22 15:27:00,15.4,1.0,29.73,WNW,293,8.0,8.0,52,0.00,,,0.00,meteohub,2013-02-22 22:27:00,
2013-02-22 15:32:00,15.1,0.7,29.73,West,270,3.0,8.0,52,0.00,,,0.00,meteohub,2013-02-22 22:32:00,
2013-02-22 15:37:00,15.1,0.7,29.73,NW,315,3.0,8.0,52,0.00,,,0.00,meteohub,2013-02-22 22:37:00,
2013-02-22 15:42:00,14.7,0.0,29.73,NW,315,1.0,8.0,51,0.00,,,0.00,meteohub,2013-02-22 22:42:00,
2013-02-22 15:47:00,14.5,0.1,29.73,NW,315,7.0,8.0,52,0.00,,,0.00,meteohub,2013-02-22 22:47:00,
2013-02-22 15:52:00,15.1,0.7,29.73,West,270,2.0,8.0,52,0.00,,,0.00,meteohub,2013-02-22 22:52:00,
2013-02-22 15:57:00,15.6,1.0,29.73,West,270,4.0,8.0,52,0.00,,,0.00,meteohub,2013-02-22 22:57:00,
2013-02-22 16:02:00,16.0,1.0,29.73,West,270,6.0,8.0,51,0.00,,,0.00,meteohub,2013-02-22 23:02:00,
2013-02-22 16:07:00,16.5,1.6,29.73,West,270,3.0,8.0,51,0.00,,,0.00,meteohub,2013-02-22 23:07:00,
2013-02-22 16:12:00,16.9,1.9,29.73,West,270,6.0,8.0,51,0.00,,,0.00,meteohub,2013-02-22 23:12:00,
2013-02-22 16:17:00,16.5,1.0,29.74,NW,315,6.0,8.0,50,0.00,,,0.00,meteohub,2013-02-22 23:17:00,
2013-02-22 16:22:00,15.6,0.7,29.73,West,270,4.0,8.0,51,0.00,,,0.00,meteohub,2013-02-22 23:22:00,
2013-02-22 16:27:00,15.1,0.1,29.73,West,270,4.0,8.0,51,0.00,,,0.00,meteohub,2013-02-22 23:27:00,
2013-02-22 16:32:00,14.5,-0.2,29.73,SW,225,2.0,7.0,51,0.00,,,0.00,meteohub,2013-02-22 23:32:00,
2013-02-22 16:37:00,14.0,-0.8,29.74,West,270,4.0,7.0,51,0.00,,,0.00,meteohub,2013-02-22 23:37:00,
2013-02-22 16:42:00,13.5,-0.9,29.74,SW,225,5.0,7.0,52,0.00,,,0.00,meteohub,2013-02-22 23:42:00,
2013-02-22 16:47:00,12.7,-1.5,29.75,SW,225,5.0,7.0,52,0.00,,,0.00,meteohub,2013-02-22 23:47:00,
2013-02-22 16:52:00,12.0,-1.8,29.74,NW,315,6.0,6.0,53,0.00,,,0.00,meteohub,2013-02-22 23:52:00,
2013-02-22 16:57:00,11.5,-2.0,29.74,West,270,1.0,9.0,54,0.00,,,0.00,meteohub,2013-02-22 23:57:00,
2013-02-22 17:02:00,11.3,-2.2,29.75,West,270,2.0,9.0,54,0.00,,,0.00,meteohub,2013-02-23 00:02:00,
2013-02-22 17:07:00,10.8,-2.6,29.75,West,270,4.0,7.0,54,0.00,,,0.00,meteohub,2013-02-23 00:07:00,
2013-02-22 17:12:00,10.6,-2.7,29.75,West,270,3.0,5.0,54,0.00,,,0.00,meteohub,2013-02-23 00:12:00,
2013-02-22 17:17:00,10.2,-4.7,29.75,West,270,3.0,4.0,50,0.00,,,0.00,meteohub,2013-02-23 00:17:00,
2013-02-22 17:22:00,9.9,-5.1,29.75,South,180,2.0,4.0,50,0.00,,,0.00,meteohub,2013-02-23 00:22:00,
2013-02-22 17:27:00,9.5,-4.9,29.75,NW,315,6.0,6.0,51,0.00,,,0.00,meteohub,2013-02-23 00:27:00,
2013-02-22 17:32:00,9.1,-5.3,29.75,SW,225,2.0,7.0,51,0.00,,,0.00,meteohub,2013-02-23 00:32:00,
2013-02-22 17:38:00,8.8,-5.6,29.75,West,270,4.0,7.0,51,0.00,,,0.00,meteohub,2013-02-23 00:38:00,
2013-02-22 17:43:00,8.4,-5.6,29.75,West,270,1.0,6.0,52,0.00,,,0.00,meteohub,2013-02-23 00:43:00,
2013-02-22 17:48:00,8.2,-5.8,29.75,NW,315,3.0,6.0,52,0.00,,,0.00,meteohub,2013-02-23 00:48:00,
2013-02-22 17:53:00,8.1,-5.6,29.76,NW,315,3.0,6.0,53,0.00,,,0.00,meteohub,2013-02-23 00:53:00,
2013-02-22 17:58:00,8.1,-5.6,29.76,NW,315,4.0,4.0,53,0.00,,,0.00,meteohub,2013-02-23 00:58:00,
2013-02-22 18:03:00,7.9,-5.6,29.76,South,180,2.0,4.0,53,0.00,,,0.00,meteohub,2013-02-23 01:03:00,
2013-02-22 18:08:00,7.5,-6.0,29.76,NW,315,2.0,4.0,53,0.00,,,0.00,meteohub,2013-02-23 01:08:00,
2013-02-22 18:13:00,7.3,-6.2,29.76,West,270,1.0,4.0,53,0.00,,,0.00,meteohub,2013-02-23 01:13:00,
2013-02-22 18:18:00,7.2,-6.3,29.76,NW,315,1.0,4.0,53,0.00,,,0.00,meteohub,2013-02-23 01:18:00,
2013-02-22 18:23:00,7.0,-6.5,29.76,NW,315,2.0,4.0,53,0.00,,,0.00,meteohub,2013-02-23 01:23:00,
2013-02-22 18:28:00,7.0,-6.2,29.76,West,270,1.0,3.0,54,0.00,,,0.00,meteohub,2013-02-23 01:28:00,
2013-02-22 18:33:00,7.0,-6.2,29.76,West,270,2.0,3.0,54,0.00,,,0.00,meteohub,2013-02-23 01:33:00,
2013-02-22 18:38:00,7.0,-6.2,29.76,West,270,1.0,2.0,54,0.00,,,0.00,meteohub,2013-02-23 01:38:00,
2013-02-22 18:43:00,6.8,-6.3,29.76,SE,135,2.0,2.0,54,0.00,,,0.00,meteohub,2013-02-23 01:43:00,
2013-02-22 18:49:00,6.6,-6.2,29.76,West,270,1.0,2.0,55,0.00,,,0.00,meteohub,2013-02-23 01:49:00,
2013-02-22 18:54:00,6.6,-6.2,29.76,NW,315,2.0,3.0,55,0.00,,,0.00,meteohub,2013-02-23 01:54:00,
2013-02-22 18:59:00,6.4,-6.3,29.76,West,270,1.0,3.0,55,0.00,,,0.00,meteohub,2013-02-23 01:59:00,
2013-02-22 19:04:00,6.4,-6.3,29.76,NW,315,2.0,3.0,55,0.00,,,0.00,meteohub,2013-02-23 02:04:00,
2013-02-22 19:09:00,6.4,-6.0,29.77,NW,315,2.0,4.0,56,0.00,,,0.00,meteohub,2013-02-23 02:09:00,
2013-02-22 19:14:00,6.3,-6.2,29.76,WNW,293,3.0,4.0,56,0.00,,,0.00,meteohub,2013-02-23 02:14:00,
2013-02-22 19:19:00,6.3,-6.2,29.77,SE,135,4.0,4.0,56,0.00,,,0.00,meteohub,2013-02-23 02:19:00,
2013-02-22 19:24:00,6.4,-5.6,29.77,NNW,338,6.0,6.0,57,0.00,,,0.00,meteohub,2013-02-23 02:24:00,
2013-02-22 19:29:00,6.4,-5.6,29.76,NW,315,2.0,8.0,57,0.00,,,0.00,meteohub,2013-02-23 02:29:00,
2013-02-22 19:34:00,6.4,-5.6,29.77,WNW,293,11.0,11.0,57,0.00,,,0.00,meteohub,2013-02-23 02:34:00,
2013-02-22 19:39:00,6.4,-5.6,29.76,West,270,3.0,8.0,57,0.00,,,0.00,meteohub,2013-02-23 02:39:00,
2013-02-22 19:45:00,6.4,-5.6,29.77,NW,315,5.0,11.0,57,0.00,,,0.00,meteohub,2013-02-23 02:45:00,
2013-02-22 19:50:00,6.4,-5.6,29.77,NW,315,2.0,11.0,57,0.00,,,0.00,meteohub,2013-02-23 02:50:00,
2013-02-22 19:55:00,6.3,-5.8,29.77,West,270,3.0,10.0,57,0.00,,,0.00,meteohub,2013-02-23 02:55:00,
2013-02-22 20:00:00,6.3,-5.8,29.77,NW,315,4.0,10.0,57,0.00,,,0.00,meteohub,2013-02-23 03:00:00,
2013-02-22 20:05:00,6.1,-5.8,29.77,NW,315,4.0,10.0,57,0.00,,,0.00,meteohub,2013-02-23 03:05:00,
2013-02-22 20:10:00,6.1,-5.8,29.76,NW,315,7.0,8.0,57,0.00,,,0.00,meteohub,2013-02-23 03:10:00,
2013-02-22 20:15:00,5.9,-6.0,29.77,NW,315,4.0,8.0,57,0.00,,,0.00,meteohub,2013-02-23 03:15:00,
2013-02-22 20:20:00,5.9,-6.0,29.77,West,270,3.0,8.0,57,0.00,,,0.00,meteohub,2013-02-23 03:20:00,
2013-02-22 20:25:00,5.7,-6.2,29.77,NW,315,2.0,8.0,57,0.00,,,0.00,meteohub,2013-02-23 03:25:00,
2013-02-22 20:30:00,5.5,-6.3,29.77,SE,135,1.0,8.0,57,0.00,,,0.00,meteohub,2013-02-23 03:30:00,
2013-02-22 20:35:00,5.5,-6.7,29.77,NW,315,4.0,5.0,56,0.00,,,0.00,meteohub,2013-02-23 03:35:00,
2013-02-22 20:40:00,5.4,-6.9,29.77,NW,315,6.0,8.0,56,0.00,,,0.00,meteohub,2013-02-23 03:40:00,
2013-02-22 20:45:00,5.2,-7.1,29.77,NW,315,5.0,8.0,56,0.00,,,0.00,meteohub,2013-02-23 03:45:00,
2013-02-22 20:50:00,5.2,-7.1,29.76,NW,315,9.0,9.0,56,0.00,,,0.00,meteohub,2013-02-23 03:50:00,
2013-02-22 20:55:00,5.0,-7.2,29.76,NW,315,4.0,9.0,56,0.00,,,0.00,meteohub,2013-02-23 03:55:00,
2013-02-22 21:01:00,5.0,-7.2,29.76,SW,225,2.0,11.0,56,0.00,,,0.00,meteohub,2013-02-23 04:01:00,
2013-02-22 21:06:00,5.0,-7.2,29.77,SW,225,2.0,11.0,56,0.00,,,0.00,meteohub,2013-02-23 04:06:00,
2013-02-22 21:11:00,4.8,-7.1,29.77,NW,315,2.0,11.0,57,0.00,,,0.00,meteohub,2013-02-23 04:11:00,
2013-02-22 21:16:00,4.6,-7.2,29.77,West,270,5.0,6.0,57,0.00,,,0.00,meteohub,2013-02-23 04:16:00,
2013-02-22 21:21:00,4.5,-7.4,29.77,WNW,293,4.0,6.0,57,0.00,,,0.00,meteohub,2013-02-23 04:21:00,
2013-02-22 21:26:00,4.5,-7.4,29.77,SE,135,2.0,5.0,57,0.00,,,0.00,meteohub,2013-02-23 04:26:00,
2013-02-22 21:31:00,4.5,-7.4,29.77,SW,225,2.0,5.0,57,0.00,,,0.00,meteohub,2013-02-23 04:31:00,
2013-02-22 21:36:00,4.5,-7.1,29.77,NW,315,2.0,4.0,58,0.00,,,0.00,meteohub,2013-02-23 04:36:00,
2013-02-22 21:41:00,4.5,-7.1,29.77,West,270,4.0,4.0,58,0.00,,,0.00,meteohub,2013-02-23 04:41:00,
2013-02-22 21:46:00,4.3,-7.2,29.77,WNW,293,4.0,4.0,58,0.00,,,0.00,meteohub,2013-02-23 04:46:00,
2013-02-22 21:51:00,4.3,-7.2,29.77,SE,135,2.0,6.0,58,0.00,,,0.00,meteohub,2013-02-23 04:51:00,
2013-02-22 21:56:00,4.1,-7.4,29.76,South,180,1.0,6.0,58,0.00,,,0.00,meteohub,2013-02-23 04:56:00,
2013-02-22 22:00:00,3.9,-7.6,29.76,East,90,2.0,6.0,58,0.00,,,0.00,meteohub,2013-02-23 05:00:00,
2013-02-22 22:01:00,3.9,-7.6,29.76,SE,135,2.0,4.0,58,0.00,,,0.00,meteohub,2013-02-23 05:01:00,
2013-02-22 22:02:00,3.9,-8.0,29.76,East,90,2.0,4.0,57,0.00,,,0.00,meteohub,2013-02-23 05:02:00,
2013-02-22 22:07:00,3.6,-8.3,29.76,SE,135,3.0,4.0,57,0.00,,,0.00,meteohub,2013-02-23 05:07:00,
2013-02-22 22:13:00,3.4,-8.5,29.76,NW,315,4.0,4.0,57,0.00,,,0.00,meteohub,2013-02-23 05:13:00,
2013-02-22 22:18:00,3.2,-8.7,29.76,SE,135,5.0,5.0,57,0.00,,,0.00,meteohub,2013-02-23 05:18:00,
2013-02-22 22:23:00,3.2,-8.7,29.77,West,270,2.0,6.0,57,0.00,,,0.00,meteohub,2013-02-23 05:23:00,
2013-02-22 22:28:00,3.0,-8.5,29.76,SE,135,5.0,6.0,58,0.00,,,0.00,meteohub,2013-02-23 05:28:00,
2013-02-22 22:33:00,3.2,-8.7,29.77,East,90,4.0,6.0,57,0.00,,,0.00,meteohub,2013-02-23 05:33:00,
2013-02-22 22:38:00,3.2,-8.7,29.77,NW,315,2.0,13.0,57,0.00,,,0.00,meteohub,2013-02-23 05:38:00,
2013-02-22 22:43:00,3.2,-8.7,29.77,SE,135,2.0,13.0,57,0.00,,,0.00,meteohub,2013-02-23 05:43:00,
2013-02-22 22:49:00,3.0,-8.7,29.77,West,270,2.0,13.0,57,0.00,,,0.00,meteohub,2013-02-23 05:49:00,
2013-02-22 22:54:00,3.2,-9.0,29.77,West,270,4.0,7.0,56,0.00,,,0.00,meteohub,2013-02-23 05:54:00,
2013-02-22 22:59:00,3.4,-8.9,29.78,SW,225,2.0,11.0,56,0.00,,,0.00,meteohub,2013-02-23 05:59:00,
2013-02-22 23:04:00,3.2,-9.0,29.78,NW,315,2.0,11.0,56,0.00,,,0.00,meteohub,2013-02-23 06:04:00,
2013-02-22 23:09:00,3.2,-9.0,29.77,SW,225,9.0,11.0,56,0.00,,,0.00,meteohub,2013-02-23 06:09:00,
2013-02-22 23:14:00,3.4,-8.9,29.78,NW,315,8.0,9.0,56,0.00,,,0.00,meteohub,2013-02-23 06:14:00,
2013-02-22 23:19:00,3.4,-8.9,29.77,NW,315,6.0,11.0,56,0.00,,,0.00,meteohub,2013-02-23 06:19:00,
2013-02-22 23:24:00,3.4,-8.9,29.76,NW,315,2.0,11.0,56,0.00,,,0.00,meteohub,2013-02-23 06:24:00,
2013-02-22 23:30:00,3.4,-8.9,29.76,North,0,8.0,11.0,56,0.00,,,0.00,meteohub,2013-02-23 06:30:00,
2013-02-22 23:35:00,3.4,-8.9,29.77,NW,315,5.0,10.0,56,0.00,,,0.00,meteohub,2013-02-23 06:35:00,
2013-02-22 23:40:00,3.6,-8.7,29.76,SE,135,9.0,11.0,56,0.00,,,0.00,meteohub,2013-02-23 06:40:00,
2013-02-22 23:45:00,3.6,-8.3,29.77,NW,315,15.0,16.0,57,0.00,,,0.00,meteohub,2013-02-23 06:45:00,
2013-02-22 23:50:00,3.7,-7.8,29.75,SE,135,13.0,16.0,58,0.00,,,0.00,meteohub,2013-02-23 06:50:00,
2013-02-22 23:55:00,3.7,-7.4,29.75,NE,45,7.0,23.0,59,0.00,,,0.00,meteohub,2013-02-23 06:55:00,